Villa Angelina, Puerto Rico
Current Conditions -  °F | °C
As of 12:53 AM on Thursday 27 Nov 2014 (Local Time) from TJNR Reporting Station
Scattered Clouds Scattered Clouds  
Wind Chill: 80°   Ceiling: Unl
Heat Index: 84°   Visibility: 10mi
Dew Point: 71°   Wind: 8mph
Humidity: 74%   Direction: 90°E
Pressure: 30.03"   Gusts: NA
Location:  18.3744°N, 65.7168°W
Report Text: TJNR 270453Z AUTO 09007KT 10SM FEW025 SCT034 27/22 A3003 RMK AO2 SLP167 T02670217 $
Loading
Personal Weather Stations






























Interactive Weather Map New forecast layout! Learn more

10-Day Weather Forecast

Advertisements
Track Severe Weather on mobile